sensor_id;sensor_type;location;lat;lon;timestamp;pressure;altitude;pressure_sealevel;temperature;humidity
51928;BME280;37953;52.806;18.270;2022-07-29T00:01:25;101136.59;;;17.88;100.00
51928;BME280;37953;52.806;18.270;2022-07-29T00:03:51;101143.63;;;17.88;100.00
51928;BME280;37953;52.806;18.270;2022-07-29T00:06:17;101141.97;;;17.82;100.00
51928;BME280;37953;52.806;18.270;2022-07-29T00:08:43;101149.88;;;17.82;100.00
51928;BME280;37953;52.806;18.270;2022-07-29T00:11:09;101149.88;;;17.79;100.00
51928;BME280;37953;52.806;18.270;2022-07-29T00:13:35;101157.81;;;17.76;100.00
51928;BME280;37953;52.806;18.270;2022-07-29T00:16:01;101142.94;;;17.74;100.00
51928;BME280;37953;52.806;18.270;2022-07-29T00:18:27;101145.59;;;17.72;100.00
51928;BME280;37953;52.806;18.270;2022-07-29T00:20:53;101149.13;;;17.71;100.00
51928;BME280;37953;52.806;18.270;2022-07-29T00:23:19;101156.16;;;17.69;100.00
51928;BME280;37953;52.806;18.270;2022-07-29T00:25:45;101154.44;;;17.68;100.00
51928;BME280;37953;52.806;18.270;2022-07-29T00:28:11;101159.69;;;17.66;100.00
51928;BME280;37953;52.806;18.270;2022-07-29T00:30:37;101157.06;;;17.68;100.00
51928;BME280;37953;52.806;18.270;2022-07-29T00:33:03;101153.59;;;17.66;100.00
51928;BME280;37953;52.806;18.270;2022-07-29T00:35:42;101158.81;;;17.67;100.00
51928;BME280;37953;52.806;18.270;2022-07-29T00:38:16;101160.56;;;17.67;100.00
51928;BME280;37953;52.806;18.270;2022-07-29T00:40:43;101163.25;;;17.64;100.00
51928;BME280;37953;52.806;18.270;2022-07-29T00:43:10;101160.63;;;17.62;100.00
51928;BME280;37953;52.806;18.270;2022-07-29T00:45:36;101161.56;;;17.60;100.00
51928;BME280;37953;52.806;18.270;2022-07-29T00:48:05;101162.47;;;17.57;100.00
51928;BME280;37953;52.806;18.270;2022-07-29T00:50:32;101160.78;;;17.55;100.00
51928;BME280;37953;52.806;18.270;2022-07-29T00:52:59;101158.19;;;17.52;100.00
51928;BME280;37953;52.806;18.270;2022-07-29T00:55:25;101158.25;;;17.47;100.00
51928;BME280;37953;52.806;18.270;2022-07-29T00:57:52;101157.38;;;17.46;100.00
51928;BME280;37953;52.806;18.270;2022-07-29T01:00:21;101156.53;;;17.44;100.00
51928;BME280;37953;52.806;18.270;2022-07-29T01:02:48;101153.97;;;17.40;100.00
51928;BME280;37953;52.806;18.270;2022-07-29T01:05:16;101159.25;;;17.38;100.00
51928;BME280;37953;52.806;18.270;2022-07-29T01:07:44;101157.53;;;17.36;100.00
51928;BME280;37953;52.806;18.270;2022-07-29T01:10:12;101156.69;;;17.34;100.00
51928;BME280;37953;52.806;18.270;2022-07-29T01:12:39;101161.09;;;17.32;100.00
51928;BME280;37953;52.806;18.270;2022-07-29T01:15:12;101155.84;;;17.32;100.00
51928;BME280;37953;52.806;18.270;2022-07-29T01:26:49;101155.97;;;17.22;100.00
51928;BME280;37953;52.806;18.270;2022-07-29T01:29:32;101161.25;;;17.21;100.00
51928;BME280;37953;52.806;18.270;2022-07-29T01:32:07;101157.78;;;17.17;100.00
51928;BME280;37953;52.806;18.270;2022-07-29T01:37:38;101151.75;;;17.11;100.00
51928;BME280;37953;52.806;18.270;2022-07-29T01:40:18;101165.78;;;17.08;100.00
51928;BME280;37953;52.806;18.270;2022-07-29T01:42:58;101164.97;;;17.04;100.00
51928;BME280;37953;52.806;18.270;2022-07-29T01:45:42;101163.19;;;17.05;100.00
51928;BME280;37953;52.806;18.270;2022-07-29T01:48:16;101155.41;;;16.97;100.00
51928;BME280;37953;52.806;18.270;2022-07-29T01:50:50;101159.81;;;16.95;100.00
51928;BME280;37953;52.806;18.270;2022-07-29T01:53:29;101153.75;;;16.92;100.00
51928;BME280;37953;52.806;18.270;2022-07-29T01:55:57;101152.91;;;16.88;100.00
51928;BME280;37953;52.806;18.270;2022-07-29T01:58:27;101148.56;;;16.87;100.00
51928;BME280;37953;52.806;18.270;2022-07-29T02:01:00;101145.94;;;16.87;100.00
51928;BME280;37953;52.806;18.270;2022-07-29T02:03:28;101140.72;;;16.84;100.00
51928;BME280;37953;52.806;18.270;2022-07-29T02:05:56;101142.50;;;16.82;100.00
51928;BME280;37953;52.806;18.270;2022-07-29T02:08:26;101141.63;;;16.81;100.00
51928;BME280;37953;52.806;18.270;2022-07-29T02:10:53;101137.25;;;16.79;100.00
51928;BME280;37953;52.806;18.270;2022-07-29T02:13:22;101140.75;;;16.76;100.00
51928;BME280;37953;52.806;18.270;2022-07-29T02:15:49;101149.53;;;16.74;100.00
51928;BME280;37953;52.806;18.270;2022-07-29T02:18:24;101146.06;;;16.72;100.00
51928;BME280;37953;52.806;18.270;2022-07-29T02:20:55;101146.13;;;16.70;100.00
51928;BME280;37953;52.806;18.270;2022-07-29T02:23:23;101145.22;;;16.69;100.00
51928;BME280;37953;52.806;18.270;2022-07-29T02:25:56;101143.50;;;16.68;100.00
51928;BME280;37953;52.806;18.270;2022-07-29T02:28:26;101138.31;;;16.62;100.00
51928;BME280;37953;52.806;18.270;2022-07-29T02:31:00;101147.09;;;16.60;100.00
51928;BME280;37953;52.806;18.270;2022-07-29T02:33:29;101140.16;;;16.54;100.00
51928;BME280;37953;52.806;18.270;2022-07-29T02:35:56;101147.19;;;16.51;100.00
51928;BME280;37953;52.806;18.270;2022-07-29T02:38:25;101143.72;;;16.48;100.00
51928;BME280;37953;52.806;18.270;2022-07-29T02:41:52;101137.53;;;16.54;100.00
51928;BME280;37953;52.806;18.270;2022-07-29T02:44:23;101138.50;;;16.47;100.00
51928;BME280;37953;52.806;18.270;2022-07-29T02:46:58;101137.66;;;16.43;100.00
51928;BME280;37953;52.806;18.270;2022-07-29T02:49:59;101134.16;;;16.43;100.00
51928;BME280;37953;52.806;18.270;2022-07-29T02:54:56;101129.06;;;16.27;100.00
51928;BME280;37953;52.806;18.270;2022-07-29T02:57:41;101132.53;;;16.29;100.00
51928;BME280;37953;52.806;18.270;2022-07-29T03:00:09;101138.69;;;16.27;100.00
51928;BME280;37953;52.806;18.270;2022-07-29T03:02:45;101146.56;;;16.28;100.00
51928;BME280;37953;52.806;18.270;2022-07-29T03:05:16;101147.41;;;16.27;100.00
51928;BME280;37953;52.806;18.270;2022-07-29T03:07:46;101151.81;;;16.27;100.00
51928;BME280;37953;52.806;18.270;2022-07-29T03:10:13;101151.81;;;16.25;100.00
51928;BME280;37953;52.806;18.270;2022-07-29T03:12:40;101150.09;;;16.24;100.00
51928;BME280;37953;52.806;18.270;2022-07-29T03:15:12;101146.59;;;16.24;100.00
51928;BME280;37953;52.806;18.270;2022-07-29T03:17:39;101148.38;;;16.22;100.00
51928;BME280;37953;52.806;18.270;2022-07-29T03:20:07;101148.38;;;16.19;100.00
51928;BME280;37953;52.806;18.270;2022-07-29T03:22:39;101150.13;;;16.18;100.00
51928;BME280;37953;52.806;18.270;2022-07-29T03:25:21;101146.66;;;16.18;100.00
51928;BME280;37953;52.806;18.270;2022-07-29T03:27:48;101150.19;;;16.12;100.00
51928;BME280;37953;52.806;18.270;2022-07-29T03:30:15;101140.59;;;16.11;100.00
51928;BME280;37953;52.806;18.270;2022-07-29T03:32:44;101151.09;;;16.10;100.00
51928;BME280;37953;52.806;18.270;2022-07-29T03:35:10;101151.09;;;16.10;100.00
51928;BME280;37953;52.806;18.270;2022-07-29T03:37:36;101145.00;;;16.06;100.00
51928;BME280;37953;52.806;18.270;2022-07-29T03:40:05;101145.91;;;16.05;100.00
51928;BME280;37953;52.806;18.270;2022-07-29T03:42:51;101142.38;;;16.07;100.00
51928;BME280;37953;52.806;18.270;2022-07-29T03:45:30;101140.66;;;16.06;100.00
51928;BME280;37953;52.806;18.270;2022-07-29T03:48:00;101143.28;;;16.06;100.00
51928;BME280;37953;52.806;18.270;2022-07-29T03:50:28;101136.28;;;16.07;100.00
51928;BME280;37953;52.806;18.270;2022-07-29T03:52:56;101133.66;;;16.07;100.00
51928;BME280;37953;52.806;18.270;2022-07-29T03:55:33;101131.00;;;16.10;100.00
51928;BME280;37953;52.806;18.270;2022-07-29T03:58:02;101134.50;;;16.09;100.00
51928;BME280;37953;52.806;18.270;2022-07-29T04:00:29;101137.13;;;16.07;100.00
51928;BME280;37953;52.806;18.270;2022-07-29T04:03:03;101142.38;;;16.09;100.00
51928;BME280;37953;52.806;18.270;2022-07-29T04:05:30;101142.38;;;16.09;100.00
51928;BME280;37953;52.806;18.270;2022-07-29T04:07:56;101144.09;;;16.10;100.00
51928;BME280;37953;52.806;18.270;2022-07-29T04:10:22;101147.56;;;16.12;100.00
51928;BME280;37953;52.806;18.270;2022-07-29T04:12:51;101135.31;;;16.14;100.00
51928;BME280;37953;52.806;18.270;2022-07-29T04:15:18;101144.91;;;16.18;100.00
51928;BME280;37953;52.806;18.270;2022-07-29T04:17:44;101148.38;;;16.22;100.00
51928;BME280;37953;52.806;18.270;2022-07-29T04:20:10;101149.22;;;16.24;100.00
51928;BME280;37953;52.806;18.270;2022-07-29T04:22:39;101156.19;;;16.26;100.00
51928;BME280;37953;52.806;18.270;2022-07-29T04:25:11;101156.13;;;16.29;100.00
51928;BME280;37953;52.806;18.270;2022-07-29T04:27:37;101143.88;;;16.32;100.00
51928;BME280;37953;52.806;18.270;2022-07-29T04:30:23;101147.34;;;16.35;100.00
51928;BME280;37953;52.806;18.270;2022-07-29T04:32:49;101153.44;;;16.39;100.00
51928;BME280;37953;52.806;18.270;2022-07-29T04:35:15;101140.31;;;16.40;100.00
51928;BME280;37953;52.806;18.270;2022-07-29T04:37:41;101146.38;;;16.42;100.00
51928;BME280;37953;52.806;18.270;2022-07-29T04:40:08;101153.38;;;16.45;100.00
51928;BME280;37953;52.806;18.270;2022-07-29T04:42:34;101148.09;;;16.48;100.00
51928;BME280;37953;52.806;18.270;2022-07-29T04:45:00;101145.47;;;16.48;100.00
51928;BME280;37953;52.806;18.270;2022-07-29T04:47:26;101153.31;;;16.51;100.00
51928;BME280;37953;52.806;18.270;2022-07-29T04:49:52;101143.69;;;16.53;100.00
51928;BME280;37953;52.806;18.270;2022-07-29T04:52:18;101152.41;;;16.55;100.00
51928;BME280;37953;52.806;18.270;2022-07-29T04:54:44;101147.97;;;16.57;100.00
51928;BME280;37953;52.806;18.270;2022-07-29T04:57:10;101147.97;;;16.59;100.00
51928;BME280;37953;52.806;18.270;2022-07-29T04:59:36;101158.44;;;16.62;100.00
51928;BME280;37953;52.806;18.270;2022-07-29T05:02:02;101161.03;;;16.65;100.00
51928;BME280;37953;52.806;18.270;2022-07-29T05:04:28;101159.25;;;16.67;100.00
51928;BME280;37953;52.806;18.270;2022-07-29T05:06:54;101158.34;;;16.69;100.00
51928;BME280;37953;52.806;18.270;2022-07-29T05:09:20;101167.91;;;16.74;100.00
51928;BME280;37953;52.806;18.270;2022-07-29T05:11:46;101172.25;;;16.78;100.00
51928;BME280;37953;52.806;18.270;2022-07-29T05:14:12;101165.22;;;16.80;100.00
51928;BME280;37953;52.806;18.270;2022-07-29T05:16:38;101169.59;;;16.84;100.00
51928;BME280;37953;52.806;18.270;2022-07-29T05:19:07;101162.53;;;16.89;100.00
51928;BME280;37953;52.806;18.270;2022-07-29T05:21:33;101169.47;;;16.93;100.00
51928;BME280;37953;52.806;18.270;2022-07-29T05:23:59;101172.91;;;16.98;100.00
51928;BME280;37953;52.806;18.270;2022-07-29T05:26:26;101173.75;;;17.02;100.00
51928;BME280;37953;52.806;18.270;2022-07-29T05:28:52;101169.31;;;17.05;100.00
51928;BME280;37953;52.806;18.270;2022-07-29T05:31:19;101171.88;;;17.10;100.00
51928;BME280;37953;52.806;18.270;2022-07-29T05:33:45;101176.19;;;17.16;100.00
51928;BME280;37953;52.806;18.270;2022-07-29T05:36:11;101169.13;;;17.21;100.00
51928;BME280;37953;52.806;18.270;2022-07-29T05:38:37;101173.41;;;17.25;100.00
51928;BME280;37953;52.806;18.270;2022-07-29T05:41:04;101160.25;;;17.29;100.00
51928;BME280;37953;52.806;18.270;2022-07-29T05:43:31;101157.56;;;17.34;100.00
51928;BME280;37953;52.806;18.270;2022-07-29T05:45:57;101156.63;;;17.38;100.00
51928;BME280;37953;52.806;18.270;2022-07-29T05:48:23;101163.56;;;17.42;100.00
51928;BME280;37953;52.806;18.270;2022-07-29T05:50:50;101155.63;;;17.47;100.00
51928;BME280;37953;52.806;18.270;2022-07-29T05:53:16;101152.06;;;17.51;100.00
51928;BME280;37953;52.806;18.270;2022-07-29T05:55:42;101150.25;;;17.55;100.00
51928;BME280;37953;52.806;18.270;2022-07-29T05:58:08;101152.78;;;17.61;100.00
51928;BME280;37953;52.806;18.270;2022-07-29T06:00:34;101150.09;;;17.65;100.00
51928;BME280;37953;52.806;18.270;2022-07-29T06:03:03;101149.16;;;17.69;100.00
51928;BME280;37953;52.806;18.270;2022-07-29T06:05:29;101147.31;;;17.75;100.00
51928;BME280;37953;52.806;18.270;2022-07-29T06:07:55;101148.09;;;17.80;100.00
51928;BME280;37953;52.806;18.270;2022-07-29T06:10:21;101145.44;;;17.84;100.00
51928;BME280;37953;52.806;18.270;2022-07-29T06:12:47;101148.00;;;17.89;100.00
51928;BME280;37953;52.806;18.270;2022-07-29T06:15:13;101145.28;;;17.94;100.00
51928;BME280;37953;52.806;18.270;2022-07-29T06:17:39;101141.72;;;17.98;100.00
51928;BME280;37953;52.806;18.270;2022-07-29T06:20:05;101150.38;;;18.03;100.00
51928;BME280;37953;52.806;18.270;2022-07-29T06:22:32;101146.78;;;18.08;100.00
51928;BME280;37953;52.806;18.270;2022-07-29T06:24:58;101140.56;;;18.13;100.00
51928;BME280;37953;52.806;18.270;2022-07-29T06:27:24;101149.25;;;18.18;100.00
51928;BME280;37953;52.806;18.270;2022-07-29T06:29:50;101146.50;;;18.22;100.00
51928;BME280;37953;52.806;18.270;2022-07-29T06:32:16;101149.94;;;18.27;100.00
51928;BME280;37953;52.806;18.270;2022-07-29T06:34:42;101149.88;;;18.30;100.00
51928;BME280;37953;52.806;18.270;2022-07-29T06:37:09;101146.28;;;18.35;100.00
51928;BME280;37953;52.806;18.270;2022-07-29T06:39:36;101147.09;;;18.40;100.00
51928;BME280;37953;52.806;18.270;2022-07-29T06:42:08;101144.41;;;18.43;100.00
51928;BME280;37953;52.806;18.270;2022-07-29T06:44:34;101147.81;;;18.48;100.00
51928;BME280;37953;52.806;18.270;2022-07-29T06:47:00;101149.50;;;18.52;100.00
51928;BME280;37953;52.806;18.270;2022-07-29T06:49:27;101148.56;;;18.55;100.00
51928;BME280;37953;52.806;18.270;2022-07-29T06:51:54;101142.28;;;18.60;100.00
51928;BME280;37953;52.806;18.270;2022-07-29T06:54:20;101141.34;;;18.64;100.00
51928;BME280;37953;52.806;18.270;2022-07-29T06:56:47;101136.00;;;18.69;100.00
51928;BME280;37953;52.806;18.270;2022-07-29T06:59:14;101131.53;;;18.72;100.00
51928;BME280;37953;52.806;18.270;2022-07-29T07:01:43;101132.38;;;18.75;100.00
51928;BME280;37953;52.806;18.270;2022-07-29T07:04:10;101131.41;;;18.80;100.00
51928;BME280;37953;52.806;18.270;2022-07-29T07:06:37;101145.41;;;18.84;100.00
51928;BME280;37953;52.806;18.270;2022-07-29T07:09:03;101136.50;;;18.88;100.00
51928;BME280;37953;52.806;18.270;2022-07-29T07:11:30;101137.31;;;18.91;100.00
51928;BME280;37953;52.806;18.270;2022-07-29T07:13:56;101134.63;;;18.95;100.00
51928;BME280;37953;52.806;18.270;2022-07-29T07:16:22;101134.56;;;18.98;100.00
51928;BME280;37953;52.806;18.270;2022-07-29T07:18:48;101132.72;;;19.01;100.00
51928;BME280;37953;52.806;18.270;2022-07-29T07:21:14;101133.50;;;19.05;100.00
51928;BME280;37953;52.806;18.270;2022-07-29T07:23:40;101129.06;;;19.08;100.00
51928;BME280;37953;52.806;18.270;2022-07-29T07:26:06;101128.09;;;19.12;100.00
51928;BME280;37953;52.806;18.270;2022-07-29T07:28:32;101125.34;;;19.17;100.00
51928;BME280;37953;52.806;18.270;2022-07-29T07:30:58;101126.16;;;19.21;100.00
51928;BME280;37953;52.806;18.270;2022-07-29T07:33:24;101119.91;;;19.25;100.00
51928;BME280;37953;52.806;18.270;2022-07-29T07:35:51;101119.81;;;19.28;100.00
51928;BME280;37953;52.806;18.270;2022-07-29T07:38:16;101120.63;;;19.31;100.00
51928;BME280;37953;52.806;18.270;2022-07-29T07:40:43;101113.53;;;19.35;100.00
51928;BME280;37953;52.806;18.270;2022-07-29T07:43:09;101119.56;;;19.39;100.00
51928;BME280;37953;52.806;18.270;2022-07-29T07:45:35;101118.59;;;19.43;100.00
51928;BME280;37953;52.806;18.270;2022-07-29T07:48:03;101121.19;;;19.46;100.00
51928;BME280;37953;52.806;18.270;2022-07-29T07:50:29;101120.22;;;19.50;100.00
51928;BME280;37953;52.806;18.270;2022-07-29T07:52:55;101127.16;;;19.52;100.00
51928;BME280;37953;52.806;18.270;2022-07-29T07:55:25;101122.66;;;19.58;100.00
51928;BME280;37953;52.806;18.270;2022-07-29T07:57:51;101120.78;;;19.63;100.00
51928;BME280;37953;52.806;18.270;2022-07-29T08:00:17;101123.28;;;19.67;100.00
51928;BME280;37953;52.806;18.270;2022-07-29T08:02:44;101125.84;;;19.72;100.00
51928;BME280;37953;52.806;18.270;2022-07-29T08:05:17;101123.06;;;19.78;100.00
51928;BME280;37953;52.806;18.270;2022-07-29T08:07:44;101122.13;;;19.81;100.00
51928;BME280;37953;52.806;18.270;2022-07-29T08:10:13;101129.88;;;19.87;100.00
51928;BME280;37953;52.806;18.270;2022-07-29T08:12:45;101128.00;;;19.92;100.00
51928;BME280;37953;52.806;18.270;2022-07-29T08:15:11;101135.78;;;19.97;100.00
51928;BME280;37953;52.806;18.270;2022-07-29T08:17:37;101136.63;;;19.99;100.00
51928;BME280;37953;52.806;18.270;2022-07-29T08:20:04;101134.75;;;20.02;100.00
51928;BME280;37953;52.806;18.270;2022-07-29T08:22:30;101136.34;;;20.09;100.00
51928;BME280;37953;52.806;18.270;2022-07-29T08:24:56;101137.91;;;20.17;100.00
51928;BME280;37953;52.806;18.270;2022-07-29T08:27:23;101131.59;;;20.22;100.00
51928;BME280;37953;52.806;18.270;2022-07-29T08:29:49;101127.03;;;20.29;100.00
51928;BME280;37953;52.806;18.270;2022-07-29T08:32:15;101121.59;;;20.35;100.00
51928;BME280;37953;52.806;18.270;2022-07-29T08:34:41;101124.03;;;20.43;100.00
51928;BME280;37953;52.806;18.270;2022-07-29T08:37:08;101123.88;;;20.47;100.00
51928;BME280;37953;52.806;18.270;2022-07-29T08:39:34;101124.72;;;20.49;100.00
51928;BME280;37953;52.806;18.270;2022-07-29T08:42:00;101124.59;;;20.52;100.00
51928;BME280;37953;52.806;18.270;2022-07-29T08:44:26;101125.41;;;20.56;100.00
51928;BME280;37953;52.806;18.270;2022-07-29T08:46:52;101119.19;;;20.59;100.00
51928;BME280;37953;52.806;18.270;2022-07-29T08:49:18;101125.22;;;20.64;99.22
51928;BME280;37953;52.806;18.270;2022-07-29T08:51:45;101118.97;;;20.66;99.27
51928;BME280;37953;52.806;18.270;2022-07-29T08:54:17;101113.56;;;20.71;98.94
51928;BME280;37953;52.806;18.270;2022-07-29T08:56:44;101120.50;;;20.75;98.07
51928;BME280;37953;52.806;18.270;2022-07-29T08:59:11;101118.63;;;20.79;96.37
51928;BME280;37953;52.806;18.270;2022-07-29T09:01:38;101119.34;;;20.84;94.45
51928;BME280;37953;52.806;18.270;2022-07-29T09:04:10;101113.06;;;20.88;94.15
51928;BME280;37953;52.806;18.270;2022-07-29T09:06:42;101118.25;;;20.91;94.38
51928;BME280;37953;52.806;18.270;2022-07-29T09:09:08;101116.38;;;20.94;95.12
51928;BME280;37953;52.806;18.270;2022-07-29T09:11:35;101123.28;;;21.00;95.77
51928;BME280;37953;52.806;18.270;2022-07-29T09:14:01;101122.31;;;21.03;93.12
51928;BME280;37953;52.806;18.270;2022-07-29T09:16:48;101114.38;;;21.03;92.24
51928;BME280;37953;52.806;18.270;2022-07-29T09:19:26;101117.00;;;21.04;92.41
51928;BME280;37953;52.806;18.270;2022-07-29T09:21:54;101119.63;;;21.04;92.22
51928;BME280;37953;52.806;18.270;2022-07-29T09:27:01;101123.94;;;21.07;91.79
51928;BME280;37953;52.806;18.270;2022-07-29T09:29:27;101115.09;;;21.08;91.00
51928;BME280;37953;52.806;18.270;2022-07-29T09:31:55;101119.47;;;21.09;89.89
51928;BME280;37953;52.806;18.270;2022-07-29T09:34:23;101115.91;;;21.10;87.82
51928;BME280;37953;52.806;18.270;2022-07-29T09:36:54;101121.19;;;21.10;87.28
51928;BME280;37953;52.806;18.270;2022-07-29T09:39:35;101125.63;;;21.09;87.38
51928;BME280;37953;52.806;18.270;2022-07-29T09:42:11;101123.75;;;21.13;87.46
51928;BME280;37953;52.806;18.270;2022-07-29T09:44:48;101114.19;;;21.09;87.52
51928;BME280;37953;52.806;18.270;2022-07-29T09:47:19;101109.81;;;21.08;86.79
51928;BME280;37953;52.806;18.270;2022-07-29T09:49:58;101112.44;;;21.08;85.84
51928;BME280;37953;52.806;18.270;2022-07-29T09:52:28;101110.75;;;21.07;86.52
51928;BME280;37953;52.806;18.270;2022-07-29T09:55:08;101109.81;;;21.08;87.01
51928;BME280;37953;52.806;18.270;2022-07-29T09:57:35;101107.09;;;21.11;87.33
51928;BME280;37953;52.806;18.270;2022-07-29T10:00:08;101102.78;;;21.08;86.43
51928;BME280;37953;52.806;18.270;2022-07-29T10:02:36;101099.22;;;21.09;87.23
51928;BME280;37953;52.806;18.270;2022-07-29T10:05:06;101109.78;;;21.09;87.69
51928;BME280;37953;52.806;18.270;2022-07-29T10:07:47;101104.50;;;21.09;87.35
51928;BME280;37953;52.806;18.270;2022-07-29T10:10:27;101108.88;;;21.10;86.99
51928;BME280;37953;52.806;18.270;2022-07-29T10:12:59;101109.72;;;21.11;85.75
51928;BME280;37953;52.806;18.270;2022-07-29T10:15:27;101107.91;;;21.13;86.16
51928;BME280;37953;52.806;18.270;2022-07-29T10:17:55;101106.13;;;21.13;85.50
51928;BME280;37953;52.806;18.270;2022-07-29T10:20:22;101106.09;;;21.15;84.92
51928;BME280;37953;52.806;18.270;2022-07-29T10:22:49;101100.69;;;21.18;85.35
51928;BME280;37953;52.806;18.270;2022-07-29T10:25:16;101103.28;;;21.20;85.38
51928;BME280;37953;52.806;18.270;2022-07-29T10:27:44;101104.16;;;21.20;85.55
51928;BME280;37953;52.806;18.270;2022-07-29T10:30:12;101108.47;;;21.23;86.25
51928;BME280;37953;52.806;18.270;2022-07-29T10:38:48;101106.53;;;21.29;83.56
51928;BME280;37953;52.806;18.270;2022-07-29T10:41:29;101102.91;;;21.32;83.47
51928;BME280;37953;52.806;18.270;2022-07-29T10:44:17;101096.66;;;21.34;83.84
51928;BME280;37953;52.806;18.270;2022-07-29T10:46:51;101104.56;;;21.36;83.33
51928;BME280;37953;52.806;18.270;2022-07-29T10:49:22;101097.44;;;21.38;83.29
51928;BME280;37953;52.806;18.270;2022-07-29T10:57:24;101091.06;;;21.45;82.93
51928;BME280;37953;52.806;18.270;2022-07-29T11:05:00;101088.09;;;21.54;80.08
51928;BME280;37953;52.806;18.270;2022-07-29T11:07:33;101094.19;;;21.57;80.68
51928;BME280;37953;52.806;18.270;2022-07-29T11:15:10;101087.97;;;21.59;77.94
51928;BME280;37953;52.806;18.270;2022-07-29T11:20:37;101088.66;;;21.64;75.61
51928;BME280;37953;52.806;18.270;2022-07-29T11:23:34;101093.00;;;21.67;74.72
51928;BME280;37953;52.806;18.270;2022-07-29T11:28:42;101092.81;;;21.71;76.40
51928;BME280;37953;52.806;18.270;2022-07-29T11:31:16;101090.94;;;21.75;76.66
51928;BME280;37953;52.806;18.270;2022-07-29T11:33:45;101089.97;;;21.78;75.20
51928;BME280;37953;52.806;18.270;2022-07-29T11:36:13;101088.09;;;21.81;74.82
51928;BME280;37953;52.806;18.270;2022-07-29T11:38:45;101079.19;;;21.84;75.14
51928;BME280;37953;52.806;18.270;2022-07-29T11:43:57;101070.16;;;21.91;75.46
51928;BME280;37953;52.806;18.270;2022-07-29T11:46:48;101064.72;;;21.94;74.05
51928;BME280;37953;52.806;18.270;2022-07-29T11:49:24;101067.34;;;21.95;75.05
51928;BME280;37953;52.806;18.270;2022-07-29T11:51:55;101072.59;;;21.97;74.36
51928;BME280;37953;52.806;18.270;2022-07-29T11:54:24;101072.50;;;21.99;74.06
51928;BME280;37953;52.806;18.270;2022-07-29T11:56:52;101068.97;;;22.00;74.92
51928;BME280;37953;52.806;18.270;2022-07-29T11:59:19;101062.72;;;22.01;74.02
51928;BME280;37953;52.806;18.270;2022-07-29T12:01:53;101054.72;;;22.04;73.57
51928;BME280;37953;52.806;18.270;2022-07-29T12:04:19;101051.94;;;22.07;73.40
51928;BME280;37953;52.806;18.270;2022-07-29T12:06:52;101058.84;;;22.11;69.95
51928;BME280;37953;52.806;18.270;2022-07-29T12:09:20;101053.47;;;22.14;72.01
51928;BME280;37953;52.806;18.270;2022-07-29T12:11:47;101050.72;;;22.15;72.23
51928;BME280;37953;52.806;18.270;2022-07-29T12:14:32;101052.34;;;22.20;72.94
51928;BME280;37953;52.806;18.270;2022-07-29T12:16:59;101047.81;;;22.25;74.18
51928;BME280;37953;52.806;18.270;2022-07-29T12:19:29;101053.78;;;22.30;74.73
51928;BME280;37953;52.806;18.270;2022-07-29T12:22:28;101053.38;;;22.41;73.46
51928;BME280;37953;52.806;18.270;2022-07-29T12:25:04;101045.22;;;22.47;71.63
51928;BME280;37953;52.806;18.270;2022-07-29T12:27:31;101042.44;;;22.50;71.31
51928;BME280;37953;52.806;18.270;2022-07-29T12:30:00;101033.47;;;22.54;71.34
51928;BME280;37953;52.806;18.270;2022-07-29T12:32:36;101026.16;;;22.61;70.89
51928;BME280;37953;52.806;18.270;2022-07-29T12:35:09;101029.44;;;22.67;70.21
51928;BME280;37953;52.806;18.270;2022-07-29T12:37:39;101037.00;;;22.76;66.72
51928;BME280;37953;52.806;18.270;2022-07-29T12:40:07;101031.34;;;22.86;65.97
51928;BME280;37953;52.806;18.270;2022-07-29T12:42:34;101032.84;;;22.93;67.47
51928;BME280;37953;52.806;18.270;2022-07-29T12:45:01;101025.41;;;23.03;68.63
51928;BME280;37953;52.806;18.270;2022-07-29T12:47:27;101034.84;;;23.10;68.01
51928;BME280;37953;52.806;18.270;2022-07-29T12:50:14;101028.41;;;23.15;69.18
51928;BME280;37953;52.806;18.270;2022-07-29T12:52:45;101028.31;;;23.19;68.35
51928;BME280;37953;52.806;18.270;2022-07-29T12:55:11;101019.25;;;23.24;67.20
51928;BME280;37953;52.806;18.270;2022-07-29T12:57:50;101020.72;;;23.31;68.38
51928;BME280;37953;52.806;18.270;2022-07-29T13:00:22;101019.53;;;23.38;68.23
51928;BME280;37953;52.806;18.270;2022-07-29T13:02:58;101028.09;;;23.45;65.23
51928;BME280;37953;52.806;18.270;2022-07-29T13:05:40;101026.91;;;23.52;63.10
51928;BME280;37953;52.806;18.270;2022-07-29T13:08:18;101019.88;;;23.51;63.05
51928;BME280;37953;52.806;18.270;2022-07-29T13:10:46;101020.00;;;23.48;60.72
51928;BME280;37953;52.806;18.270;2022-07-29T13:13:13;101018.16;;;23.50;62.09
51928;BME280;37953;52.806;18.270;2022-07-29T13:15:42;101005.56;;;23.55;61.54
51928;BME280;37953;52.806;18.270;2022-07-29T13:18:27;101000.94;;;23.61;63.16
51928;BME280;37953;52.806;18.270;2022-07-29T13:20:54;101005.88;;;23.68;60.80
51928;BME280;37953;52.806;18.270;2022-07-29T13:23:21;101002.94;;;23.76;60.78
51928;BME280;37953;52.806;18.270;2022-07-29T13:25:47;100994.06;;;23.77;60.57
51928;BME280;37953;52.806;18.270;2022-07-29T13:28:14;101002.03;;;23.77;61.13
51928;BME280;37953;52.806;18.270;2022-07-29T13:30:40;101004.75;;;23.74;60.97
51928;BME280;37953;52.806;18.270;2022-07-29T13:33:09;100987.25;;;23.70;60.12